Airfield :
LOGIN :

Register | Disclaimer

   EN    FR    IT 

 










Legend :    VFR   Marginal VFR   IFR   Intensive IFR   Very Intensive IFR
Visi :
Ceiling :
>= 8 km
>= 3000ft
5 to 8 km
1000 to 3000 ft
1500m to 5 km
500 to 1000 ft
800 to 1500m
200 to 500 ft
< 800m
< 200 ft
Symbols :   Thunderstorms  Fog  Heavy snow  Heavy precipitations  Wind > 20 kt
SIGMETs :     Misc.  Thunderstorms  Icing  Turbulence  Mountain Waves  Volcanic Ashes







- Airport Elevation : 616 ft
- IATA code : PUF
- Download approach charts


LFBP - Pau

CURRENT METAR :
  • 281230Z AUTO VRB02KT 9999 FEW017 SCT028 BKN044 24/19 Q1019 NOSIG

EXPIRED METARs :
  • 281200Z AUTO VRB02KT 9999 OVC026 23/18 Q1019 NOSIG
  • 281130Z AUTO VRB02KT 9999 OVC026 21/17 Q1019 NOSIG
  • 281100Z AUTO 03003KT 310V090 9999 FEW009 OVC021 20/17 Q1019 NOSIG
  • 281030Z AUTO 02006KT 310V050 5000 -DZ BR FEW005 OVC013 19/18 Q1019 BECMG BKN025
  • 281000Z AUTO VRB04KT 3900 -RA BR BKN006 OVC013 19/18 Q1019 BECMG 9999 NSW BKN025

TAF AMD TAF LFBP
Valid from the 28 at 10:00 until the 29 at 06:00 UTC


281007Z 2810/2906 30005KT 4000 -DZRA BKN005 OVC012
BECMG 2810/2812 9999 NSW BKN025
PROB30
TEMPO 2903/2906 3000 MIFG
No reported NOTAMs for that airfield.



MET'MAP, your aeronautical weather chart ! - Copyright ORBIFLY December 2007 - Disclaimer

ORBIFLY MET'MAP TEAM :

Programming & Development : Alexandra Zaïnal
Concept & Development : Baudouin d'Aumeries
Co-Development & Prog : Marc-Olivier Méhu
Technical & hardware support : Manuel Goepfert

Contact : metmap@orbifly.com




SOURCES & CREDITS :

   NOAA